Missouri City, Texas
Current Conditions -  °F | °C
As of 8:53 PM on Tuesday 25 Nov 2014 (Local Time) from KSGR Reporting Station
Clear Clear  
Wind Chill: 46°   Ceiling: Unl
Heat Index: 46°   Visibility: 10mi
Dew Point: 38°   Wind: 3mph
Humidity: 73%   Direction: 180°S
Pressure: 30.24"   Gusts: NA
Location:  29.61°N, 95.53°W
Report Text: KSGR 260253Z 18003KT 10SM CLR 08/03 A3024 RMK AO2 SLP243 T00780033 51005
Loading
Personal Weather Stations






























Interactive Weather Map New forecast layout! Learn more

10-Day Weather Forecast

Advertisements
Track Severe Weather on mobile